createdAt,value
2023-06-13T00:00:33.091Z,15.52
2023-06-13T00:03:01.393Z,15.50
2023-06-13T00:05:28.495Z,13.55
2023-06-13T00:07:55.836Z,15.45
2023-06-13T00:10:22.860Z,13.27
2023-06-13T00:12:50.686Z,13.23
2023-06-13T00:15:18.134Z,12.57
2023-06-13T00:17:49.348Z,12.45
2023-06-13T00:20:16.978Z,12.60
2023-06-13T00:22:46.490Z,14.57
2023-06-13T00:25:14.914Z,12.50
2023-06-13T00:27:41.946Z,13.38
2023-06-13T00:30:09.289Z,14.25
2023-06-13T00:32:36.448Z,12.85
2023-06-13T00:35:03.853Z,13.90
2023-06-13T00:37:35.644Z,14.18
2023-06-13T00:40:03.870Z,12.88
2023-06-13T00:42:33.271Z,12.93
2023-06-13T00:45:23.945Z,12.50
2023-06-13T00:47:59.475Z,12.82
2023-06-13T00:50:29.561Z,13.32
2023-06-13T00:52:58.785Z,12.30
2023-06-13T00:55:27.437Z,13.48
2023-06-13T00:57:59.391Z,11.90
2023-06-13T01:00:31.336Z,12.32
2023-06-13T01:03:08.376Z,13.00
2023-06-13T01:05:36.660Z,14.00
2023-06-13T01:08:08.732Z,13.10
2023-06-13T01:10:37.518Z,13.43
2023-06-13T01:13:17.745Z,13.15
2023-06-13T01:16:00.301Z,12.40
2023-06-13T01:18:31.635Z,13.13
2023-06-13T01:21:02.021Z,12.15
2023-06-13T01:23:46.315Z,13.90
2023-06-13T01:26:51.400Z,11.98
2023-06-13T01:31:50.145Z,13.45
2023-06-13T01:34:18.359Z,13.25
2023-06-13T01:36:45.976Z,13.93
2023-06-13T01:39:12.996Z,13.50
2023-06-13T01:41:42.108Z,13.23
2023-06-13T01:44:13.179Z,13.40
2023-06-13T01:46:51.598Z,13.00
2023-06-13T01:49:37.892Z,13.00
2023-06-13T01:52:05.112Z,12.82
2023-06-13T01:54:38.078Z,12.38
2023-06-13T01:57:08.782Z,13.05
2023-06-13T01:59:39.620Z,11.73
2023-06-13T02:02:08.150Z,11.52
2023-06-13T02:04:42.278Z,11.65
2023-06-13T02:09:37.856Z,12.60
2023-06-13T02:12:05.426Z,11.50
2023-06-13T02:14:33.952Z,10.80
2023-06-13T02:17:01.416Z,11.00
2023-06-13T02:19:31.326Z,12.70
2023-06-13T02:21:58.513Z,11.82
2023-06-13T02:24:26.454Z,13.90
2023-06-13T02:26:54.142Z,11.13
2023-06-13T02:29:21.968Z,11.50
2023-06-13T02:31:49.436Z,11.13
2023-06-13T02:34:16.566Z,14.00
2023-06-13T02:36:43.588Z,12.13
2023-06-13T02:39:12.794Z,12.80
2023-06-13T02:41:42.365Z,14.95
2023-06-13T02:44:09.333Z,13.98
2023-06-13T02:46:36.348Z,11.20
2023-06-13T02:49:03.739Z,14.68
2023-06-13T02:51:30.966Z,12.43
2023-06-13T02:53:58.310Z,13.45
2023-06-13T02:56:27.362Z,13.40
2023-06-13T02:58:54.581Z,12.10
2023-06-13T03:01:22.305Z,11.68
2023-06-13T03:03:52.612Z,11.18
2023-06-13T03:06:20.177Z,9.23
2023-06-13T03:08:49.404Z,9.27
2023-06-13T03:11:16.415Z,11.00
2023-06-13T03:13:43.670Z,10.30
2023-06-13T03:16:12.013Z,8.18
2023-06-13T03:18:39.818Z,7.47
2023-06-13T03:21:07.371Z,8.35
2023-06-13T03:23:34.703Z,8.43
2023-06-13T03:26:04.339Z,8.00
2023-06-13T03:28:31.415Z,7.90
2023-06-13T03:30:58.666Z,8.48
2023-06-13T03:33:27.008Z,8.73
2023-06-13T03:35:57.925Z,8.45
2023-06-13T03:38:29.053Z,7.32
2023-06-13T03:40:56.722Z,6.82
2023-06-13T03:43:23.938Z,7.47
2023-06-13T03:45:51.162Z,6.63
2023-06-13T03:48:18.609Z,7.47
2023-06-13T03:50:46.671Z,6.60
2023-06-13T03:53:13.769Z,6.95
2023-06-13T03:55:41.219Z,6.78
2023-06-13T03:58:08.444Z,7.05
2023-06-13T04:00:36.034Z,6.70
2023-06-13T04:03:03.496Z,5.97
2023-06-13T04:05:32.361Z,5.65
2023-06-13T04:07:59.528Z,6.07
2023-06-13T04:10:26.535Z,5.38
2023-06-13T04:12:53.692Z,5.25
2023-06-13T04:15:22.022Z,4.90
2023-06-13T04:17:49.058Z,4.18
2023-06-13T04:20:16.891Z,3.55
2023-06-13T04:22:44.361Z,4.45
2023-06-13T04:25:11.593Z,3.72
2023-06-13T04:27:39.849Z,3.80
2023-06-13T04:30:09.604Z,3.63
2023-06-13T04:32:40.908Z,3.97
2023-06-13T04:35:08.717Z,3.55
2023-06-13T04:37:36.885Z,4.07
2023-06-13T04:40:07.092Z,2.92
2023-06-13T04:42:34.141Z,2.78
2023-06-13T04:45:01.123Z,3.95
2023-06-13T04:47:42.381Z,3.90
2023-06-13T04:50:20.602Z,3.63
2023-06-13T04:52:54.524Z,3.20
2023-06-13T04:55:26.479Z,3.83
2023-06-13T04:57:53.704Z,4.30
2023-06-13T05:00:21.216Z,2.60
2023-06-13T05:02:49.692Z,3.42
2023-06-13T05:05:19.588Z,3.00
2023-06-13T05:07:49.257Z,3.05
2023-06-13T05:10:19.243Z,3.85
2023-06-13T05:12:46.499Z,2.42
2023-06-13T05:15:13.506Z,3.78
2023-06-13T05:17:40.592Z,2.88
2023-06-13T05:20:08.514Z,2.67
2023-06-13T05:22:35.491Z,2.65
2023-06-13T05:25:03.422Z,4.30
2023-06-13T05:27:30.711Z,3.42
2023-06-13T05:29:57.742Z,3.38
2023-06-13T05:32:24.789Z,2.88
2023-06-13T05:34:51.832Z,3.58
2023-06-13T05:37:19.855Z,3.67
2023-06-13T05:39:47.082Z,4.05
2023-06-13T05:42:14.081Z,3.83
2023-06-13T05:44:41.091Z,2.55
2023-06-13T05:47:08.132Z,2.70
2023-06-13T05:49:35.682Z,2.75
2023-06-13T05:52:02.971Z,3.60
2023-06-13T05:54:30.004Z,3.65
2023-06-13T05:56:57.084Z,3.65
2023-06-13T05:59:24.083Z,3.83
2023-06-13T06:01:52.081Z,3.30
2023-06-13T06:04:19.307Z,3.25
2023-06-13T06:06:46.464Z,3.95
2023-06-13T06:09:13.406Z,3.55
2023-06-13T06:11:40.905Z,3.88
2023-06-13T06:14:08.087Z,3.63
2023-06-13T06:16:35.169Z,3.50
2023-06-13T06:19:02.326Z,4.10
2023-06-13T06:21:29.745Z,3.03
2023-06-13T06:23:57.222Z,4.22
2023-06-13T06:26:25.852Z,3.90
2023-06-13T06:28:52.848Z,4.72
2023-06-13T06:31:20.409Z,4.22
2023-06-13T06:33:47.579Z,4.53
2023-06-13T06:36:16.768Z,3.35
2023-06-13T06:43:11.485Z,4.38
2023-06-13T06:45:38.688Z,3.13
2023-06-13T06:48:06.082Z,4.32
2023-06-13T06:50:33.246Z,3.00
2023-06-13T06:53:00.203Z,4.63
2023-06-13T06:55:27.212Z,4.65
2023-06-13T06:57:54.605Z,3.92
2023-06-13T07:00:23.616Z,3.63
2023-06-13T07:02:50.784Z,4.72
2023-06-13T07:05:17.988Z,3.55
2023-06-13T07:07:45.723Z,3.90
2023-06-13T07:10:12.958Z,4.10
2023-06-13T07:12:40.652Z,5.30
2023-06-13T07:15:08.530Z,3.53
2023-06-13T07:17:35.787Z,4.90
2023-06-13T07:20:06.673Z,3.50
2023-06-13T07:22:33.797Z,3.72
2023-06-13T07:25:01.062Z,3.65
2023-06-13T07:27:28.622Z,4.07
2023-06-13T07:29:55.856Z,4.35
2023-06-13T07:32:22.860Z,2.55
2023-06-13T07:35:05.124Z,3.35
2023-06-13T07:37:34.066Z,3.42
2023-06-13T07:40:01.244Z,4.07
2023-06-13T07:42:28.508Z,3.25
2023-06-13T07:44:55.704Z,3.70
2023-06-13T07:47:22.926Z,4.43
2023-06-13T07:49:49.963Z,5.03
2023-06-13T07:52:17.340Z,5.35
2023-06-13T07:54:45.015Z,4.45
2023-06-13T07:57:26.017Z,5.30
2023-06-13T07:59:59.140Z,5.05
2023-06-13T08:02:27.493Z,5.03
2023-06-13T08:04:55.828Z,4.60
2023-06-13T08:07:23.337Z,5.05
2023-06-13T08:09:51.172Z,4.88
2023-06-13T08:12:18.606Z,5.20
2023-06-13T08:14:45.573Z,5.82
2023-06-13T08:17:12.680Z,4.45
2023-06-13T08:19:40.240Z,5.50
2023-06-13T08:22:07.277Z,5.63
2023-06-13T08:24:34.388Z,5.25
2023-06-13T08:27:01.508Z,5.20
2023-06-13T08:29:29.982Z,6.47
2023-06-13T08:31:57.671Z,4.35
2023-06-13T08:34:25.105Z,5.13
2023-06-13T08:36:52.435Z,6.53
2023-06-13T08:39:21.732Z,5.20
2023-06-13T08:41:50.841Z,6.22
2023-06-13T08:44:18.784Z,5.22
2023-06-13T08:46:46.175Z,5.97
2023-06-13T08:49:13.861Z,6.05
2023-06-13T08:51:44.045Z,6.30
2023-06-13T08:54:14.084Z,6.65
2023-06-13T08:56:45.338Z,6.00
2023-06-13T08:59:17.509Z,5.53
2023-06-13T09:01:45.672Z,5.60
2023-06-13T09:04:13.900Z,6.82
2023-06-13T09:06:42.706Z,6.13
2023-06-13T09:09:10.442Z,5.60
2023-06-13T09:11:40.948Z,5.40
2023-06-13T09:14:08.943Z,5.78
2023-06-13T09:16:36.372Z,5.88
2023-06-13T09:19:04.524Z,6.05
2023-06-13T09:21:31.759Z,7.07
2023-06-13T09:23:59.200Z,6.25
2023-06-13T09:26:27.665Z,6.70
2023-06-13T09:28:58.448Z,6.63
2023-06-13T09:31:29.805Z,7.05
2023-06-13T09:34:03.378Z,6.15
2023-06-13T09:36:31.060Z,7.45
2023-06-13T09:38:59.709Z,7.55
2023-06-13T09:41:28.081Z,6.68
2023-06-13T09:43:55.239Z,5.60
2023-06-13T09:46:25.749Z,6.28
2023-06-13T09:48:53.395Z,5.80
2023-06-13T09:51:22.403Z,5.93
2023-06-13T09:53:50.712Z,5.82
2023-06-13T09:56:17.968Z,5.72
2023-06-13T09:58:45.153Z,6.38
2023-06-13T10:01:16.887Z,5.53
2023-06-13T10:03:45.406Z,6.80
2023-06-13T10:06:13.626Z,6.97
2023-06-13T10:08:41.693Z,4.90
2023-06-13T10:11:14.433Z,4.60
2023-06-13T10:13:51.393Z,6.95
2023-06-13T10:16:22.492Z,5.20
2023-06-13T10:18:52.982Z,5.28
2023-06-13T10:21:22.907Z,5.22
2023-06-13T10:23:51.802Z,5.80
2023-06-13T10:26:44.593Z,5.35
2023-06-13T10:29:25.779Z,5.25
2023-06-13T10:32:11.173Z,4.55
2023-06-13T10:35:03.383Z,4.78
2023-06-13T10:38:08.513Z,5.38
2023-06-13T10:40:35.595Z,6.13
2023-06-13T10:43:14.264Z,4.68
2023-06-13T10:45:45.585Z,4.65
2023-06-13T10:48:13.764Z,5.00
2023-06-13T10:50:45.389Z,4.90
2023-06-13T10:53:28.356Z,3.92
2023-06-13T10:56:03.074Z,5.72
2023-06-13T10:58:31.036Z,6.05
2023-06-13T11:01:03.942Z,5.32
2023-06-13T11:03:33.383Z,5.57
2023-06-13T11:06:07.544Z,5.60
2023-06-13T11:08:34.896Z,5.93
2023-06-13T11:11:03.547Z,5.55
2023-06-13T11:13:35.463Z,5.57
2023-06-13T11:16:41.650Z,4.88
2023-06-13T11:19:22.849Z,4.90
2023-06-13T11:22:05.106Z,4.70
2023-06-13T11:24:35.186Z,4.93
2023-06-13T11:27:08.014Z,4.55
2023-06-13T11:29:35.879Z,5.13
2023-06-13T11:32:05.900Z,4.47
2023-06-13T11:34:34.970Z,5.45
2023-06-13T11:37:09.896Z,4.63
2023-06-13T11:39:42.599Z,4.18
2023-06-13T11:42:12.113Z,4.65
2023-06-13T11:44:39.640Z,5.45
2023-06-13T11:47:12.824Z,5.93
2023-06-13T11:49:40.098Z,6.97
2023-06-13T11:52:17.677Z,5.18
2023-06-13T11:54:49.123Z,5.28
2023-06-13T11:57:16.564Z,4.25
2023-06-13T11:59:45.135Z,5.22
2023-06-13T12:02:17.757Z,4.03
2023-06-13T12:04:50.187Z,4.82
2023-06-13T12:07:19.554Z,7.35
2023-06-13T12:09:47.468Z,4.70
2023-06-13T12:12:15.040Z,4.07
2023-06-13T12:14:55.302Z,6.07
2023-06-13T12:17:24.750Z,4.70
2023-06-13T12:20:14.720Z,4.13
2023-06-13T12:22:44.553Z,4.38
2023-06-13T12:25:14.851Z,3.92
2023-06-13T12:27:42.354Z,6.85
2023-06-13T12:30:12.468Z,4.90
2023-06-13T12:32:44.950Z,5.53
2023-06-13T12:35:13.682Z,5.00
2023-06-13T12:37:42.223Z,5.80
2023-06-13T12:40:14.654Z,5.88
2023-06-13T12:42:44.264Z,7.00
2023-06-13T12:45:12.772Z,7.78
2023-06-13T12:47:40.345Z,6.20
2023-06-13T12:50:11.531Z,5.35
2023-06-13T12:52:39.850Z,8.32
2023-06-13T12:55:07.237Z,4.88
2023-06-13T12:57:35.003Z,5.28
2023-06-13T13:00:02.638Z,6.68
2023-06-13T13:02:31.036Z,5.88
2023-06-13T13:05:01.390Z,6.63
2023-06-13T13:07:31.147Z,5.38
2023-06-13T13:10:00.584Z,5.88
2023-06-13T13:12:31.948Z,6.25
2023-06-13T13:15:32.142Z,5.25
2023-06-13T13:17:49.944Z,5.90
2023-06-13T13:20:21.334Z,5.22
2023-06-13T13:22:49.496Z,5.28
2023-06-13T13:25:20.935Z,5.82
2023-06-13T13:27:49.786Z,6.55
2023-06-13T13:30:18.998Z,6.05
2023-06-13T13:32:51.971Z,5.85
2023-06-13T13:35:35.327Z,7.43
2023-06-13T13:38:07.123Z,8.15
2023-06-13T13:41:11.810Z,6.05
2023-06-13T13:43:46.884Z,8.98
2023-06-13T13:46:22.267Z,7.27
2023-06-13T13:49:03.379Z,7.40
2023-06-13T13:51:33.377Z,8.32
2023-06-13T13:54:01.743Z,5.70
2023-06-13T13:56:29.143Z,6.10
2023-06-13T13:58:58.085Z,8.10
2023-06-13T14:01:28.390Z,6.90
2023-06-13T14:03:56.162Z,7.13
2023-06-13T14:06:23.676Z,6.50
2023-06-13T14:08:51.242Z,6.20
2023-06-13T14:11:19.715Z,6.07
2023-06-13T14:13:47.419Z,6.70
2023-06-13T14:16:15.187Z,5.90
2023-06-13T14:18:42.724Z,6.60
2023-06-13T14:21:12.919Z,6.15
2023-06-13T14:23:41.261Z,6.03
2023-06-13T14:26:08.673Z,5.85
2023-06-13T14:28:38.088Z,5.88
2023-06-13T14:31:05.625Z,6.40
2023-06-13T14:33:34.507Z,6.95
2023-06-13T14:36:04.141Z,6.85
2023-06-13T14:38:31.291Z,6.97
2023-06-13T14:40:58.478Z,7.40
2023-06-13T14:43:25.637Z,5.50
2023-06-13T14:45:53.305Z,6.68
2023-06-13T14:48:51.002Z,6.20
2023-06-13T14:58:02.019Z,7.55
2023-06-13T15:00:49.649Z,6.90
2023-06-13T15:03:27.272Z,8.93
2023-06-13T15:05:54.615Z,7.93
2023-06-13T15:08:21.650Z,8.50
2023-06-13T15:10:48.732Z,7.07
2023-06-13T15:13:18.014Z,7.38
2023-06-13T15:15:53.400Z,7.97
2023-06-13T15:18:20.649Z,6.45
2023-06-13T15:20:48.921Z,7.32
2023-06-13T15:23:17.278Z,7.30
2023-06-13T15:25:44.245Z,7.47
2023-06-13T15:28:11.216Z,8.65
2023-06-13T15:30:38.519Z,7.68
2023-06-13T15:33:06.247Z,8.00
2023-06-13T15:35:33.622Z,8.27
2023-06-13T15:38:00.698Z,9.13
2023-06-13T15:40:28.280Z,8.95
2023-06-13T15:42:55.580Z,8.70
2023-06-13T15:45:22.905Z,8.15
2023-06-13T15:47:50.026Z,8.90
2023-06-13T15:50:17.481Z,9.60
2023-06-13T15:52:44.466Z,8.75
2023-06-13T15:55:11.435Z,9.20
2023-06-13T15:57:38.526Z,9.82
2023-06-13T16:00:07.720Z,9.18
2023-06-13T16:02:43.111Z,8.73
2023-06-13T16:05:11.425Z,9.23
2023-06-13T16:07:43.796Z,10.18
2023-06-13T16:10:11.447Z,8.70
2023-06-13T16:12:38.537Z,8.95
2023-06-13T16:15:06.764Z,8.60
2023-06-13T16:17:33.813Z,7.10
2023-06-13T16:20:01.235Z,8.18
2023-06-13T16:22:28.453Z,7.43
2023-06-13T16:24:55.788Z,6.40
2023-06-13T16:27:22.948Z,8.80
2023-06-13T16:29:50.728Z,10.13
2023-06-13T16:32:18.187Z,8.48
2023-06-13T16:34:45.251Z,9.45
2023-06-13T16:37:12.473Z,9.45
2023-06-13T16:39:39.874Z,7.65
2023-06-13T16:42:08.710Z,7.47
2023-06-13T16:44:35.930Z,7.95
2023-06-13T16:47:03.888Z,7.18
2023-06-13T16:49:30.963Z,8.70
2023-06-13T16:51:57.948Z,6.63
2023-06-13T16:54:24.826Z,7.80
2023-06-13T16:56:51.930Z,6.82
2023-06-13T16:59:19.587Z,7.68
2023-06-13T17:01:46.641Z,7.07
2023-06-13T17:04:13.909Z,7.97
2023-06-13T17:06:41.312Z,8.27
2023-06-13T17:09:08.928Z,6.55
2023-06-13T17:11:35.917Z,9.77
2023-06-13T17:14:04.011Z,9.60
2023-06-13T17:16:34.482Z,8.68
2023-06-13T17:19:01.904Z,9.52
2023-06-13T17:21:28.919Z,7.40
2023-06-13T17:23:55.977Z,7.53
2023-06-13T17:26:22.969Z,7.32
2023-06-13T17:28:51.072Z,7.88
2023-06-13T17:31:18.240Z,6.95
2023-06-13T17:33:51.097Z,6.82
2023-06-13T17:36:19.052Z,6.10
2023-06-13T17:38:46.023Z,6.43
2023-06-13T17:41:16.674Z,7.07
2023-06-13T17:43:43.969Z,6.63
2023-06-13T17:46:11.281Z,7.55
2023-06-13T17:48:41.935Z,7.90
2023-06-13T17:51:09.638Z,8.85
2023-06-13T17:53:38.724Z,7.47
2023-06-13T17:56:06.107Z,8.77
2023-06-13T17:58:33.217Z,8.57
2023-06-13T18:01:00.561Z,10.82
2023-06-13T18:03:28.009Z,11.02
2023-06-13T18:05:54.951Z,13.35
2023-06-13T18:08:21.860Z,11.70
2023-06-13T18:10:48.780Z,12.73
2023-06-13T18:13:15.870Z,14.40
2023-06-13T18:15:43.349Z,15.82
2023-06-13T18:18:10.401Z,17.67
2023-06-13T18:20:38.784Z,18.58
2023-06-13T18:23:07.300Z,18.35
2023-06-13T18:25:35.007Z,19.73
2023-06-13T18:28:02.095Z,16.75
2023-06-13T18:30:29.420Z,17.88
2023-06-13T18:32:56.872Z,17.15
2023-06-13T18:35:24.247Z,18.15
2023-06-13T18:37:51.273Z,19.58
2023-06-13T18:40:18.218Z,19.25
2023-06-13T18:42:45.259Z,18.50
2023-06-13T18:45:12.789Z,17.90
2023-06-13T18:47:40.075Z,19.27
2023-06-13T18:50:07.765Z,16.65
2023-06-13T18:52:37.342Z,17.60
2023-06-13T18:55:04.942Z,18.77
2023-06-13T18:57:32.024Z,20.17
2023-06-13T18:59:59.099Z,21.98
2023-06-13T19:02:26.261Z,21.08
2023-06-13T19:04:54.723Z,20.58
2023-06-13T19:07:22.808Z,22.13
2023-06-13T19:09:50.733Z,20.40
2023-06-13T19:12:23.412Z,20.08
2023-06-13T19:14:50.749Z,18.15
2023-06-13T19:17:18.722Z,18.77
2023-06-13T19:19:46.230Z,19.42
2023-06-13T19:22:13.628Z,19.92
2023-06-13T19:24:40.905Z,20.58
2023-06-13T19:27:08.287Z,19.30
2023-06-13T19:29:37.680Z,21.10
2023-06-13T19:32:06.032Z,20.40
2023-06-13T19:34:34.585Z,16.83
2023-06-13T19:37:01.582Z,17.25
2023-06-13T19:39:28.938Z,16.73
2023-06-13T19:41:56.162Z,16.38
2023-06-13T19:44:23.184Z,13.75
2023-06-13T19:46:50.651Z,11.15
2023-06-13T19:49:18.163Z,13.35
2023-06-13T19:51:45.609Z,15.30
2023-06-13T19:54:13.375Z,12.57
2023-06-13T19:56:40.410Z,12.95
2023-06-13T19:59:11.068Z,14.75
2023-06-13T20:01:40.255Z,14.93
2023-06-13T20:04:08.227Z,15.20
2023-06-13T20:06:35.369Z,17.67
2023-06-13T20:09:05.950Z,20.13
2023-06-13T20:11:34.769Z,19.77
2023-06-13T20:14:02.342Z,19.35
2023-06-13T20:16:31.141Z,15.90
2023-06-13T20:18:58.424Z,16.30
2023-06-13T20:21:25.429Z,16.38
2023-06-13T20:23:52.545Z,16.17
2023-06-13T20:26:19.793Z,16.58
2023-06-13T20:28:46.908Z,14.15
2023-06-13T20:31:14.310Z,14.38
2023-06-13T20:33:41.451Z,13.10
2023-06-13T20:36:08.474Z,13.25
2023-06-13T20:38:35.746Z,14.20
2023-06-13T20:41:02.831Z,14.68
2023-06-13T20:43:32.652Z,13.95
2023-06-13T20:46:00.866Z,16.25
2023-06-13T20:48:29.873Z,13.90
2023-06-13T20:50:58.593Z,14.55
2023-06-13T20:53:28.462Z,14.40
2023-06-13T20:55:56.508Z,15.70
2023-06-13T20:58:23.509Z,13.18
2023-06-13T21:00:55.648Z,13.65
2023-06-13T21:03:24.028Z,14.25
2023-06-13T21:05:51.340Z,13.43
2023-06-13T21:08:18.298Z,14.00
2023-06-13T21:10:45.495Z,12.43
2023-06-13T21:13:12.519Z,15.07
2023-06-13T21:15:46.349Z,14.25
2023-06-13T21:18:13.543Z,14.75
2023-06-13T21:20:40.587Z,15.35
2023-06-13T21:23:07.647Z,12.85
2023-06-13T21:25:34.832Z,13.95
2023-06-13T21:28:02.418Z,14.00
2023-06-13T21:30:29.708Z,12.45
2023-06-13T21:32:57.045Z,11.35
2023-06-13T21:35:25.449Z,12.52
2023-06-13T21:37:54.536Z,13.57
2023-06-13T21:40:24.082Z,13.55
2023-06-13T21:42:51.346Z,14.45
2023-06-13T21:45:30.840Z,13.15
2023-06-13T21:47:58.620Z,15.02
2023-06-13T21:50:25.813Z,14.95
2023-06-13T21:52:53.394Z,14.82
2023-06-13T21:55:21.056Z,12.43
2023-06-13T21:57:48.366Z,11.18
2023-06-13T22:00:17.605Z,13.30
2023-06-13T22:02:46.043Z,13.13
2023-06-13T22:05:13.925Z,12.23
2023-06-13T22:07:43.932Z,11.85
2023-06-13T22:10:12.480Z,13.13
2023-06-13T22:12:41.784Z,12.15
2023-06-13T22:15:09.272Z,13.32
2023-06-13T22:17:37.497Z,11.48
2023-06-13T22:20:19.915Z,12.63
2023-06-13T22:22:47.625Z,12.32
2023-06-13T22:25:15.148Z,13.32
2023-06-13T22:27:42.146Z,12.20
2023-06-13T22:30:10.333Z,13.68
2023-06-13T22:32:37.548Z,12.75
2023-06-13T22:35:05.188Z,13.38
2023-06-13T22:37:32.502Z,12.82
2023-06-13T22:39:59.939Z,14.73
2023-06-13T22:42:27.211Z,14.90
2023-06-13T22:44:54.261Z,15.20
2023-06-13T22:47:22.479Z,13.85
2023-06-13T22:49:51.997Z,12.25
2023-06-13T22:52:19.010Z,15.70
2023-06-13T22:54:46.390Z,13.43
2023-06-13T22:57:13.485Z,14.70
2023-06-13T22:59:41.001Z,16.73
2023-06-13T23:02:08.436Z,15.80
2023-06-13T23:04:35.895Z,15.27
2023-06-13T23:07:04.559Z,15.77
2023-06-13T23:09:34.846Z,15.57
2023-06-13T23:12:02.907Z,15.13
2023-06-13T23:14:30.097Z,15.45
2023-06-13T23:16:57.282Z,15.40
2023-06-13T23:19:26.034Z,14.88
2023-06-13T23:21:53.352Z,15.07
2023-06-13T23:24:20.511Z,16.08
2023-06-13T23:26:47.768Z,15.25
2023-06-13T23:29:15.246Z,16.60
2023-06-13T23:31:42.545Z,13.90
2023-06-13T23:34:10.233Z,14.70
2023-06-13T23:36:43.689Z,13.80
2023-06-13T23:39:31.635Z,12.65
2023-06-13T23:41:58.849Z,14.65
2023-06-13T23:44:26.231Z,16.17
2023-06-13T23:46:53.472Z,15.25
2023-06-13T23:49:20.492Z,14.50
2023-06-13T23:51:47.354Z,14.93
2023-06-13T23:54:15.831Z,15.73
2023-06-13T23:56:43.079Z,16.70
2023-06-13T23:59:10.422Z,14.05
